Time;durP1;ratioP1;P1;durP2;ratioP2;P2;SDS_P1;SDS_P2;PMS_P1;PMS_P2;Temp;Humidity;BMP_temperature;BMP_pressure;BME280_temperature;BME280_humidity;BME280_pressure;Samples;Min_cycle;Max_cycle;Signal;HPM_P1;HPM_P2
2021/05/14 00:00:07;;;;;;;;;;;;;;;10.05;73.07;95346.59;1693456;83;21079;-56
2021/05/14 00:02:34;;;;;;;;;;;;;;;9.95;73.65;95355.67;1694150;83;20241;-57
2021/05/14 00:05:01;;;;;;;;;;;;;;;9.97;73.91;95355.06;1701328;83;20223;-58
2021/05/14 00:07:28;;;;;;;;;;;;;;;10.02;73.68;95348.19;1697265;83;20317;-53
2021/05/14 00:09:54;;;;;;;;;;;;;;;10.06;73.46;95348.23;1686271;83;20589;-56
2021/05/14 00:12:21;;;;;;;;;;;;;;;10.08;72.90;95347.62;1694642;83;21148;-56
2021/05/14 00:14:47;;;;;;;;;;;;;;;10.10;73.05;95349.13;1701623;83;20534;-56
2021/05/14 00:17:13;;;;;;;;;;;;;;;10.19;72.93;95354.45;1691289;83;20253;-56
2021/05/14 00:19:40;;;;;;;;;;;;;;;10.25;72.62;95358.62;1675722;84;20281;-56
2021/05/14 00:22:06;;;;;;;;;;;;;;;10.32;72.87;95358.92;1680596;84;20264;-57
2021/05/14 00:24:32;;;;;;;;;;;;;;;10.31;72.69;95353.35;1676576;84;21072;-56
2021/05/14 00:26:59;;;;;;;;;;;;;;;10.30;72.69;95358.22;1683624;84;20270;-56
2021/05/14 00:29:26;;;;;;;;;;;;;;;10.28;72.49;95349.77;1681497;84;20269;-56
2021/05/14 00:31:52;;;;;;;;;;;;;;;10.22;72.18;95347.70;1688843;84;20228;-55
2021/05/14 00:34:18;;;;;;;;;;;;;;;10.17;72.01;95336.94;1684725;84;20330;-54
2021/05/14 00:36:45;;;;;;;;;;;;;;;10.21;71.83;95340.39;1687163;84;21101;-56
2021/05/14 00:39:11;;;;;;;;;;;;;;;10.25;71.77;95343.06;1675024;84;20252;-55
2021/05/14 00:41:39;;;;;;;;;;;;;;;10.24;71.85;95342.71;1682830;84;20244;-56
2021/05/14 00:44:33;;;;;;;;;;;;;;;10.26;72.07;95343.87;1673650;84;20324;-57
2021/05/14 00:47:02;;;;;;;;;;;;;;;10.27;72.46;95333.86;1673583;84;20260;-56
2021/05/14 00:49:29;;;;;;;;;;;;;;;10.27;72.45;95334.66;1693689;84;21089;-56
2021/05/14 00:51:56;;;;;;;;;;;;;;;10.28;72.15;95334.20;1680584;84;20556;-57
2021/05/14 00:54:22;;;;;;;;;;;;;;;10.23;71.81;95342.39;1667573;84;20252;-56
2021/05/14 00:56:48;;;;;;;;;;;;;;;10.10;71.76;95342.66;1675493;84;20259;-55
2021/05/14 00:59:15;;;;;;;;;;;;;;;10.10;71.84;95335.37;1682538;84;20266;-56
2021/05/14 01:01:42;;;;;;;;;;;;;;;10.12;71.91;95340.73;1676929;84;21086;-56
2021/05/14 01:04:08;;;;;;;;;;;;;;;10.16;71.96;95329.61;1678615;84;20576;-55
2021/05/14 01:06:35;;;;;;;;;;;;;;;10.22;72.13;95330.38;1688880;84;20616;-57
2021/05/14 01:09:01;;;;;;;;;;;;;;;10.27;71.67;95327.38;1683045;84;20245;-57
2021/05/14 01:11:27;;;;;;;;;;;;;;;10.26;71.66;95327.86;1684081;84;20274;-56
2021/05/14 01:13:56;;;;;;;;;;;;;;;10.27;71.67;95331.27;1661338;85;20657;-54
2021/05/14 01:16:24;;;;;;;;;;;;;;;10.23;71.56;95338.95;1671936;84;20242;-57
2021/05/14 01:18:51;;;;;;;;;;;;;;;10.13;71.74;95338.50;1668178;85;20266;-56
2021/05/14 01:21:18;;;;;;;;;;;;;;;10.14;72.21;95345.30;1690248;84;20249;-56
2021/05/14 01:23:45;;;;;;;;;;;;;;;10.18;72.26;95347.62;1680829;84;20232;-57
2021/05/14 01:26:12;;;;;;;;;;;;;;;10.19;72.26;95344.09;1678316;84;21079;-56
2021/05/14 01:28:40;;;;;;;;;;;;;;;10.08;72.50;95341.14;1687410;84;20180;-57
2021/05/14 01:31:07;;;;;;;;;;;;;;;10.04;72.88;95339.30;1677513;84;20592;-57
2021/05/14 01:33:34;;;;;;;;;;;;;;;10.03;72.79;95336.39;1672901;84;20222;-57
2021/05/14 01:36:01;;;;;;;;;;;;;;;9.99;72.53;95327.72;1672654;84;20186;-55
2021/05/14 01:38:27;;;;;;;;;;;;;;;10.06;72.55;95339.17;1691107;84;21053;-56
2021/05/14 01:40:54;;;;;;;;;;;;;;;10.13;72.80;95339.80;1686557;84;20227;-56
2021/05/14 01:43:20;;;;;;;;;;;;;;;10.16;72.56;95336.58;1679331;84;20258;-55
2021/05/14 01:45:46;;;;;;;;;;;;;;;10.24;72.70;95349.68;1686635;82;20305;-56
2021/05/14 01:48:13;;;;;;;;;;;;;;;10.29;72.54;95335.34;1687932;84;20316;-56
2021/05/14 01:50:40;;;;;;;;;;;;;;;10.34;72.16;95327.19;1685730;84;21689;-55
2021/05/14 01:53:06;;;;;;;;;;;;;;;10.41;72.06;95329.59;1668122;85;20549;-55
2021/05/14 01:55:34;;;;;;;;;;;;;;;10.40;71.93;95329.72;1681835;84;20278;-56
2021/05/14 01:58:01;;;;;;;;;;;;;;;10.42;72.16;95333.80;1673791;84;20250;-56
2021/05/14 02:00:27;;;;;;;;;;;;;;;10.42;72.40;95332.50;1674474;84;20278;-56
2021/05/14 02:02:53;;;;;;;;;;;;;;;10.44;71.62;95329.31;1678018;84;21160;-56
2021/05/14 02:05:19;;;;;;;;;;;;;;;10.49;71.30;95326.28;1675046;84;21593;-56
2021/05/14 02:07:45;;;;;;;;;;;;;;;10.62;70.89;95328.09;1680199;84;20613;-56
2021/05/14 02:10:12;;;;;;;;;;;;;;;10.77;70.32;95322.02;1678469;84;20230;-56
2021/05/14 02:12:38;;;;;;;;;;;;;;;10.90;70.74;95329.47;1674160;84;20153;-56
2021/05/14 02:15:06;;;;;;;;;;;;;;;10.90;70.56;95328.66;1688782;84;21098;-56
2021/05/14 02:17:33;;;;;;;;;;;;;;;10.84;70.63;95326.97;1677469;84;20580;-57
2021/05/14 02:19:59;;;;;;;;;;;;;;;10.80;70.85;95325.60;1698821;83;20582;-56
2021/05/14 02:22:25;;;;;;;;;;;;;;;10.73;71.01;95331.02;1688202;83;20272;-56
2021/05/14 02:24:52;;;;;;;;;;;;;;;10.64;71.38;95331.39;1694737;83;20552;-58
2021/05/14 02:27:19;;;;;;;;;;;;;;;10.52;71.76;95332.48;1697743;83;21091;-56
2021/05/14 02:29:47;;;;;;;;;;;;;;;10.48;72.32;95332.44;1697952;82;20574;-56
2021/05/14 02:32:13;;;;;;;;;;;;;;;10.45;72.26;95326.23;1692816;83;20261;-56
2021/05/14 02:34:40;;;;;;;;;;;;;;;10.41;72.53;95332.64;1637788;85;20584;-56
2021/05/14 02:37:07;;;;;;;;;;;;;;;10.40;72.98;95335.72;1692269;83;20260;-56
2021/05/14 02:39:33;;;;;;;;;;;;;;;10.41;72.89;95335.23;1690023;83;20591;-55
2021/05/14 02:42:00;;;;;;;;;;;;;;;10.39;72.79;95328.88;1694344;83;20243;-56
2021/05/14 02:44:26;;;;;;;;;;;;;;;10.33;72.87;95323.43;1690011;83;20236;-54
2021/05/14 02:46:52;;;;;;;;;;;;;;;10.22;73.13;95324.38;1692661;83;20277;-55
2021/05/14 02:49:18;;;;;;;;;;;;;;;10.12;73.50;95326.97;1690638;83;20247;-55
2021/05/14 02:51:45;;;;;;;;;;;;;;;10.04;73.69;95331.52;1698436;83;21030;-55
2021/05/14 02:54:11;;;;;;;;;;;;;;;10.03;73.91;95332.95;1680714;83;20560;-55
2021/05/14 02:56:37;;;;;;;;;;;;;;;10.08;73.78;95329.02;1672229;84;20242;-55
2021/05/14 02:59:04;;;;;;;;;;;;;;;10.20;73.39;95322.41;1694316;83;20270;-55
2021/05/14 03:01:30;;;;;;;;;;;;;;;10.36;72.93;95330.48;1684625;83;20247;-55
2021/05/14 03:03:57;;;;;;;;;;;;;;;10.50;72.48;95333.11;1694079;83;21083;-56
2021/05/14 03:06:24;;;;;;;;;;;;;;;10.70;72.14;95340.38;1695657;83;20245;-55
2021/05/14 03:08:50;;;;;;;;;;;;;;;10.92;71.64;95339.25;1696550;83;20236;-55
2021/05/14 03:11:16;;;;;;;;;;;;;;;11.15;71.04;95341.48;1692239;83;20281;-56
2021/05/14 03:13:43;;;;;;;;;;;;;;;11.37;70.22;95337.23;1694876;83;20234;-54
2021/05/14 03:16:11;;;;;;;;;;;;;;;11.59;69.63;95339.09;1695034;83;20274;-57
2021/05/14 03:18:37;;;;;;;;;;;;;;;11.77;69.42;95339.94;1700403;83;20260;-55
2021/05/14 03:21:03;;;;;;;;;;;;;;;11.93;68.82;95345.03;1679879;83;20609;-56
2021/05/14 03:23:29;;;;;;;;;;;;;;;12.05;68.19;95344.33;1670823;84;20299;-56
2021/05/14 03:25:56;;;;;;;;;;;;;;;12.15;68.75;95348.50;1680917;84;20235;-56
2021/05/14 03:28:22;;;;;;;;;;;;;;;12.26;68.48;95350.53;1674966;84;23254;-54
2021/05/14 03:30:50;;;;;;;;;;;;;;;12.36;67.91;95350.46;1672484;84;20250;-53
2021/05/14 03:33:20;;;;;;;;;;;;;;;12.42;67.41;95346.78;1678167;84;20287;-56
2021/05/14 03:35:45;;;;;;;;;;;;;;;12.50;67.33;95345.55;1689338;83;20246;-56
2021/05/14 03:38:11;;;;;;;;;;;;;;;12.58;67.42;95343.50;1682206;84;20572;-56
2021/05/14 03:40:40;;;;;;;;;;;;;;;12.67;67.67;95343.06;1687781;84;21126;-56
2021/05/14 03:43:06;;;;;;;;;;;;;;;12.79;67.57;95345.73;1677989;84;20246;-56
2021/05/14 03:45:32;;;;;;;;;;;;;;;12.96;67.34;95341.94;1680104;84;20559;-55
2021/05/14 03:47:59;;;;;;;;;;;;;;;13.20;65.42;95335.56;1686003;84;20259;-57
2021/05/14 03:50:28;;;;;;;;;;;;;;;13.53;64.46;95336.23;1680306;84;20241;-54
2021/05/14 03:52:54;;;;;;;;;;;;;;;13.79;61.96;95336.97;1677833;84;21063;-56
2021/05/14 03:55:21;;;;;;;;;;;;;;;14.06;62.95;95338.17;1683740;84;20231;-55
2021/05/14 03:57:48;;;;;;;;;;;;;;;14.50;63.57;95340.00;1691340;84;20582;-54
2021/05/14 04:00:15;;;;;;;;;;;;;;;14.68;63.12;95341.66;1682031;84;20273;-54
2021/05/14 04:02:41;;;;;;;;;;;;;;;14.72;62.56;95345.59;1679017;84;20251;-58
2021/05/14 04:05:13;;;;;;;;;;;;;;;14.51;62.31;95348.66;1670935;84;20989;-51
2021/05/14 04:07:47;;;;;;;;;;;;;;;14.23;62.86;95355.98;1709033;82;20226;-57
2021/05/14 04:10:19;;;;;;;;;;;;;;;14.04;63.14;95359.19;1701437;82;20230;-57
2021/05/14 04:15:28;;;;;;;;;;;;;;;13.87;62.90;95362.75;1703487;82;20285;-57
2021/05/14 04:17:54;;;;;;;;;;;;;;;13.80;63.50;95358.66;1702065;82;21022;-57
2021/05/14 04:20:21;;;;;;;;;;;;;;;13.80;64.02;95356.86;1704486;82;20621;-55
2021/05/14 04:22:51;;;;;;;;;;;;;;;13.82;63.74;95354.09;1710732;82;20303;-58
2021/05/14 04:25:17;;;;;;;;;;;;;;;13.81;63.69;95356.36;1708913;82;20252;-56
2021/05/14 04:27:43;;;;;;;;;;;;;;;13.82;63.86;95353.29;1717626;82;20274;-56
2021/05/14 04:30:12;;;;;;;;;;;;;;;13.84;64.48;95355.24;1701809;81;22231;-55
2021/05/14 04:32:38;;;;;;;;;;;;;;;13.80;64.85;95358.16;1708931;82;20261;-56
2021/05/14 04:35:06;;;;;;;;;;;;;;;13.77;62.32;95348.55;1710108;82;20235;-56
2021/05/14 04:37:32;;;;;;;;;;;;;;;13.86;62.00;95350.18;1703502;82;20245;-56
2021/05/14 04:39:59;;;;;;;;;;;;;;;14.03;62.82;95344.54;1706008;82;20219;-56
2021/05/14 04:42:25;;;;;;;;;;;;;;;14.18;63.47;95350.75;1697479;82;21052;-56
2021/05/14 04:44:51;;;;;;;;;;;;;;;14.22;63.96;95350.43;1695828;82;20240;-55
2021/05/14 04:47:17;;;;;;;;;;;;;;;14.27;64.75;95352.87;1695930;83;20238;-56
2021/05/14 04:49:44;;;;;;;;;;;;;;;14.34;65.35;95352.57;1697318;83;20249;-58
2021/05/14 04:52:19;;;;;;;;;;;;;;;14.43;64.94;95355.19;1694545;83;20274;-57
2021/05/14 04:54:47;;;;;;;;;;;;;;;14.49;64.79;95352.73;1693488;83;21040;-57
2021/05/14 04:57:13;;;;;;;;;;;;;;;14.64;64.75;95354.23;1693167;83;20293;-57
2021/05/14 04:59:40;;;;;;;;;;;;;;;14.80;64.03;95356.50;1692258;83;20594;-58
2021/05/14 05:02:07;;;;;;;;;;;;;;;14.90;64.33;95351.91;1693283;83;20577;-59
2021/05/14 05:04:35;;;;;;;;;;;;;;;15.03;63.89;95356.16;1689671;83;20580;-58
2021/05/14 05:07:04;;;;;;;;;;;;;;;15.06;63.29;95358.92;1706256;82;21666;-58
2021/05/14 05:09:32;;;;;;;;;;;;;;;15.02;63.17;95359.75;1675813;83;20240;-58
2021/05/14 05:11:59;;;;;;;;;;;;;;;15.02;63.28;95355.02;1666965;85;20249;-58
2021/05/14 05:14:25;;;;;;;;;;;;;;;15.07;64.44;95359.25;1680656;85;20582;-58
2021/05/14 05:16:51;;;;;;;;;;;;;;;15.16;64.72;95359.54;1672286;83;20266;-56
2021/05/14 05:19:18;;;;;;;;;;;;;;;15.17;64.83;95361.69;1705981;83;21064;-57
2021/05/14 05:21:44;;;;;;;;;;;;;;;15.15;64.63;95362.31;1704460;83;20312;-56
2021/05/14 05:24:10;;;;;;;;;;;;;;;15.19;64.30;95356.60;1698342;83;20269;-58
2021/05/14 05:26:38;;;;;;;;;;;;;;;15.25;63.44;95362.97;1706064;83;20213;-58
2021/05/14 05:29:04;;;;;;;;;;;;;;;15.18;63.00;95361.99;1696750;83;20536;-59
2021/05/14 05:31:31;;;;;;;;;;;;;;;15.09;63.32;95365.13;1704784;83;21067;-57
2021/05/14 05:33:57;;;;;;;;;;;;;;;14.99;64.43;95370.52;1709249;83;20214;-58
2021/05/14 05:36:23;;;;;;;;;;;;;;;14.84;64.60;95365.16;1711476;82;20560;-59
2021/05/14 05:38:50;;;;;;;;;;;;;;;14.77;65.34;95372.49;1726988;82;20255;-57
2021/05/14 05:41:17;;;;;;;;;;;;;;;14.81;66.11;95366.78;1725508;81;20230;-58
2021/05/14 05:43:44;;;;;;;;;;;;;;;14.93;66.23;95367.76;1714089;82;21812;-58
2021/05/14 05:46:11;;;;;;;;;;;;;;;15.03;65.85;95369.22;1674335;83;20223;-57
2021/05/14 05:48:45;;;;;;;;;;;;;;;15.12;65.80;95370.02;1680043;83;20227;-56
2021/05/14 05:51:11;;;;;;;;;;;;;;;15.21;64.75;95367.72;1710453;82;20274;-56
2021/05/14 05:53:38;;;;;;;;;;;;;;;15.24;64.39;95370.47;1686845;83;20287;-57
2021/05/14 05:56:05;;;;;;;;;;;;;;;15.30;64.77;95376.84;1684905;83;21104;-57
2021/05/14 05:58:32;;;;;;;;;;;;;;;15.35;64.81;95377.16;1680497;83;20266;-57
2021/05/14 06:00:59;;;;;;;;;;;;;;;15.41;64.75;95377.77;1672441;84;20560;-56
2021/05/14 06:03:26;;;;;;;;;;;;;;;15.46;64.64;95382.03;1709554;82;20247;-56
2021/05/14 06:05:55;;;;;;;;;;;;;;;15.53;64.46;95380.86;1702427;82;20269;-57
2021/05/14 06:08:24;;;;;;;;;;;;;;;15.59;64.33;95378.86;1705910;82;21242;-55
2021/05/14 06:10:52;;;;;;;;;;;;;;;15.56;61.80;95382.64;1714379;82;20226;-55
2021/05/14 06:13:19;;;;;;;;;;;;;;;15.58;61.20;95384.59;1714390;82;20228;-56
2021/05/14 06:15:46;;;;;;;;;;;;;;;15.59;61.21;95391.46;1721498;82;21526;-57
2021/05/14 06:18:13;;;;;;;;;;;;;;;15.60;61.25;95396.19;1717886;82;20217;-58
2021/05/14 06:20:43;;;;;;;;;;;;;;;15.59;62.13;95399.30;1703102;83;21148;-58
2021/05/14 06:23:08;;;;;;;;;;;;;;;15.64;62.88;95401.39;1702573;81;20523;-53
2021/05/14 06:25:35;;;;;;;;;;;;;;;15.69;59.78;95401.72;1711194;83;20261;-55
2021/05/14 06:28:02;;;;;;;;;;;;;;;15.64;59.33;95402.70;1713404;81;20219;-58
2021/05/14 06:30:29;;;;;;;;;;;;;;;15.62;59.79;95407.29;1721650;82;20355;-58
2021/05/14 06:32:55;;;;;;;;;;;;;;;15.61;59.30;95401.25;1716523;82;21056;-58
2021/05/14 06:35:22;;;;;;;;;;;;;;;15.59;59.43;95405.00;1726919;82;20256;-56
2021/05/14 06:37:49;;;;;;;;;;;;;;;15.61;59.66;95403.86;1722278;82;20262;-58
2021/05/14 06:40:16;;;;;;;;;;;;;;;15.67;60.35;95404.17;1725375;82;20510;-59
2021/05/14 06:42:44;;;;;;;;;;;;;;;15.79;61.03;95400.25;1712069;82;20264;-57
2021/05/14 06:45:11;;;;;;;;;;;;;;;15.94;61.01;95413.42;1714893;82;21085;-56
2021/05/14 06:47:38;;;;;;;;;;;;;;;16.03;60.34;95415.00;1714148;82;20206;-57
2021/05/14 06:50:07;;;;;;;;;;;;;;;16.13;60.40;95418.72;1720265;82;20696;-57
2021/05/14 06:52:33;;;;;;;;;;;;;;;16.25;60.85;95415.22;1710693;82;20236;-57
2021/05/14 06:55:02;;;;;;;;;;;;;;;16.35;59.96;95415.84;1710940;82;20285;-58
2021/05/14 06:57:31;;;;;;;;;;;;;;;16.44;59.87;95412.16;1720714;82;20182;-58
2021/05/14 06:59:58;;;;;;;;;;;;;;;16.56;59.86;95419.11;1720116;81;20221;-58
2021/05/14 07:02:26;;;;;;;;;;;;;;;16.68;58.46;95416.92;1717078;83;20162;-58
2021/05/14 07:04:53;;;;;;;;;;;;;;;16.75;57.38;95423.89;1719838;81;20255;-58
2021/05/14 07:07:19;;;;;;;;;;;;;;;16.79;56.56;95422.23;1688615;83;20218;-57
2021/05/14 07:09:46;;;;;;;;;;;;;;;16.82;57.60;95421.38;1685012;83;21095;-57
2021/05/14 07:12:13;;;;;;;;;;;;;;;16.92;57.30;95422.48;1690373;83;20158;-56
2021/05/14 07:14:41;;;;;;;;;;;;;;;17.00;56.25;95422.41;1688601;82;20239;-59
2021/05/14 07:17:07;;;;;;;;;;;;;;;17.02;56.15;95424.39;1682191;83;20247;-57
2021/05/14 07:19:33;;;;;;;;;;;;;;;17.04;57.40;95427.64;1683976;83;20405;-56
2021/05/14 07:22:00;;;;;;;;;;;;;;;17.06;55.86;95425.65;1686474;83;21051;-57
2021/05/14 07:24:27;;;;;;;;;;;;;;;17.07;55.87;95424.67;1693086;83;20218;-57
2021/05/14 07:26:54;;;;;;;;;;;;;;;17.03;56.51;95431.23;1684425;83;20247;-57
2021/05/14 07:29:20;;;;;;;;;;;;;;;17.00;57.30;95426.34;1681217;83;20320;-58
2021/05/14 07:31:46;;;;;;;;;;;;;;;17.02;57.71;95428.31;1685161;83;20208;-59
2021/05/14 07:34:14;;;;;;;;;;;;;;;17.01;56.69;95430.61;1680857;83;20573;-58
2021/05/14 07:36:42;;;;;;;;;;;;;;;16.91;57.67;95428.23;1682201;83;20272;-58
2021/05/14 07:39:08;;;;;;;;;;;;;;;16.86;58.87;95433.69;1688376;83;20220;-53
2021/05/14 07:41:34;;;;;;;;;;;;;;;16.86;60.50;95429.26;1679665;83;20251;-57
2021/05/14 07:44:01;;;;;;;;;;;;;;;16.88;61.04;95430.39;1688339;83;20210;-58
2021/05/14 07:46:27;;;;;;;;;;;;;;;16.93;60.98;95434.61;1691506;83;21887;-56
2021/05/14 07:48:54;;;;;;;;;;;;;;;16.96;60.20;95434.73;1686271;83;20561;-57
2021/05/14 07:51:20;;;;;;;;;;;;;;;16.99;58.57;95437.00;1693983;83;20604;-57
2021/05/14 07:53:47;;;;;;;;;;;;;;;16.98;58.75;95437.51;1686003;83;20323;-58
2021/05/14 07:56:13;;;;;;;;;;;;;;;17.00;59.05;95439.95;1687480;83;20238;-57
2021/05/14 07:58:39;;;;;;;;;;;;;;;17.00;58.10;95439.45;1694110;83;21083;-57
2021/05/14 08:01:05;;;;;;;;;;;;;;;16.99;57.38;95437.84;1691928;83;20587;-57
2021/05/14 08:03:32;;;;;;;;;;;;;;;16.97;57.43;95441.11;1688102;83;20248;-58
2021/05/14 08:05:58;;;;;;;;;;;;;;;16.96;57.26;95439.50;1684787;83;20579;-58
2021/05/14 08:08:27;;;;;;;;;;;;;;;16.99;57.38;95444.39;1687650;83;20229;-56
2021/05/14 08:10:56;;;;;;;;;;;;;;;16.99;56.91;95449.63;1687720;83;21724;-57
2021/05/14 08:13:23;;;;;;;;;;;;;;;17.02;56.96;95446.66;1685979;82;20245;-58
2021/05/14 08:15:50;;;;;;;;;;;;;;;17.06;58.21;95445.80;1684738;83;20248;-57
2021/05/14 08:18:19;;;;;;;;;;;;;;;17.10;58.96;95446.59;1678694;83;20251;-57
2021/05/14 08:20:46;;;;;;;;;;;;;;;17.15;58.17;95450.48;1692887;83;20207;-57
2021/05/14 08:23:15;;;;;;;;;;;;;;;17.19;57.98;95451.27;1685632;83;21087;-57
2021/05/14 08:25:42;;;;;;;;;;;;;;;17.24;57.93;95453.35;1681839;83;20216;-57
2021/05/14 08:28:08;;;;;;;;;;;;;;;17.28;58.28;95447.55;1693249;83;20180;-57
2021/05/14 08:30:34;;;;;;;;;;;;;;;17.28;57.81;95454.11;1675832;83;20244;-57
2021/05/14 08:33:00;;;;;;;;;;;;;;;17.25;58.10;95454.97;1689466;83;20217;-57
2021/05/14 08:35:26;;;;;;;;;;;;;;;17.18;58.51;95456.17;1681042;83;20622;-57
2021/05/14 08:37:54;;;;;;;;;;;;;;;16.98;57.52;95452.42;1686205;83;20240;-58
2021/05/14 08:40:21;;;;;;;;;;;;;;;16.78;58.26;95453.37;1685944;83;20565;-56
2021/05/14 08:42:48;;;;;;;;;;;;;;;16.70;58.98;95458.16;1675503;83;20240;-57
2021/05/14 08:45:15;;;;;;;;;;;;;;;16.60;58.69;95463.62;1681686;83;20235;-58
2021/05/14 08:47:45;;;;;;;;;;;;;;;16.49;59.48;95464.00;1687833;83;21087;-58
2021/05/14 08:50:13;;;;;;;;;;;;;;;16.49;59.83;95462.20;1686682;83;20233;-58
2021/05/14 08:52:42;;;;;;;;;;;;;;;16.52;59.97;95467.09;1676650;83;20354;-58
2021/05/14 08:55:12;;;;;;;;;;;;;;;16.51;58.96;95468.09;1688598;83;20220;-58
2021/05/14 08:57:40;;;;;;;;;;;;;;;16.61;59.69;95469.66;1692657;83;20246;-57
2021/05/14 09:00:07;;;;;;;;;;;;;;;16.85;58.76;95467.41;1684785;83;21090;-58
2021/05/14 09:02:36;;;;;;;;;;;;;;;17.07;57.70;95469.22;1691339;83;20250;-57
2021/05/14 09:05:22;;;;;;;;;;;;;;;17.24;56.33;95467.27;1698651;82;20238;-58
2021/05/14 09:07:52;;;;;;;;;;;;;;;17.31;54.75;95477.05;1734451;80;20216;-57
2021/05/14 09:10:19;;;;;;;;;;;;;;;17.34;54.24;95478.02;1707803;82;20198;-58
2021/05/14 09:12:47;;;;;;;;;;;;;;;17.42;52.91;95477.43;1704306;82;21689;-57
2021/05/14 09:15:26;;;;;;;;;;;;;;;17.45;51.87;95478.39;1706985;82;20142;-57
2021/05/14 09:18:14;;;;;;;;;;;;;;;17.48;52.11;95482.45;1705195;82;20224;-57
2021/05/14 09:20:46;;;;;;;;;;;;;;;17.58;52.31;95477.78;1706491;82;20401;-56
2021/05/14 09:23:19;;;;;;;;;;;;;;;17.72;52.58;95477.97;1706000;82;20249;-57
2021/05/14 09:26:05;;;;;;;;;;;;;;;17.87;51.93;95477.98;1708917;82;21042;-57
2021/05/14 09:28:41;;;;;;;;;;;;;;;17.96;50.03;95480.84;1710433;82;20220;-57
2021/05/14 09:31:17;;;;;;;;;;;;;;;18.07;49.83;95474.34;1709031;82;20228;-58
2021/05/14 09:33:51;;;;;;;;;;;;;;;18.21;49.14;95477.45;1699994;82;20224;-57
2021/05/14 09:36:24;;;;;;;;;;;;;;;18.34;49.36;95476.30;1703539;82;20246;-57
2021/05/14 09:38:56;;;;;;;;;;;;;;;18.51;48.89;95482.14;1709607;82;21614;-57
2021/05/14 09:41:28;;;;;;;;;;;;;;;18.65;47.28;95477.03;1704160;82;20213;-57
2021/05/14 09:43:57;;;;;;;;;;;;;;;18.69;48.67;95476.48;1697114;82;20220;-57
2021/05/14 09:46:38;;;;;;;;;;;;;;;18.78;47.01;95477.67;1710190;82;20704;-57
2021/05/14 09:49:06;;;;;;;;;;;;;;;18.76;46.81;95475.23;1711821;82;20230;-57
2021/05/14 09:51:34;;;;;;;;;;;;;;;18.72;47.12;95475.30;1710230;82;22081;-57
2021/05/14 09:54:24;;;;;;;;;;;;;;;18.75;47.79;95474.42;1707788;82;20573;-56
2021/05/14 09:59:48;;;;;;;;;;;;;;;18.75;45.50;95482.81;1688057;83;20162;-58
2021/05/14 10:02:29;;;;;;;;;;;;;;;18.56;46.89;95478.96;1704505;82;20223;-56
2021/05/14 10:04:56;;;;;;;;;;;;;;;18.52;47.71;95482.46;1676892;83;21099;-55
2021/05/14 10:07:25;;;;;;;;;;;;;;;18.48;45.56;95481.70;1680768;83;20192;-57
2021/05/14 10:09:55;;;;;;;;;;;;;;;18.25;45.69;95480.52;1672402;84;20289;-57
2021/05/14 10:12:21;;;;;;;;;;;;;;;18.03;46.23;95469.45;1693242;83;20238;-56
2021/05/14 10:14:48;;;;;;;;;;;;;;;18.05;47.43;95485.02;1683424;83;20217;-58
2021/05/14 10:17:14;;;;;;;;;;;;;;;18.15;46.54;95480.80;1686045;83;21109;-57
2021/05/14 10:19:42;;;;;;;;;;;;;;;18.28;45.70;95479.65;1679466;82;20592;-58
2021/05/14 10:22:09;;;;;;;;;;;;;;;18.41;46.40;95475.56;1684587;83;20210;-58
2021/05/14 10:24:45;;;;;;;;;;;;;;;18.51;45.27;95480.02;1702915;83;20229;-57
2021/05/14 10:27:13;;;;;;;;;;;;;;;18.53;46.11;95478.02;1685336;83;20241;-57
2021/05/14 10:29:42;;;;;;;;;;;;;;;18.66;46.86;95482.09;1691223;82;21750;-57
2021/05/14 10:32:14;;;;;;;;;;;;;;;18.85;45.70;95479.41;1682525;83;20240;-58
2021/05/14 10:34:40;;;;;;;;;;;;;;;18.93;45.61;95493.73;1685637;83;20241;-58
2021/05/14 10:37:06;;;;;;;;;;;;;;;18.96;45.57;95485.96;1684879;83;20244;-58
2021/05/14 10:39:35;;;;;;;;;;;;;;;19.03;46.20;95493.91;1687270;83;20245;-57
2021/05/14 10:42:08;;;;;;;;;;;;;;;19.12;45.54;95488.85;1689155;83;21076;-56
2021/05/14 10:44:49;;;;;;;;;;;;;;;19.20;44.77;95490.03;1693589;83;20233;-57
2021/05/14 10:47:25;;;;;;;;;;;;;;;19.25;46.01;95483.70;1694313;81;20254;-57
2021/05/14 10:50:01;;;;;;;;;;;;;;;19.27;44.98;95484.32;1692105;83;20218;-57
2021/05/14 10:52:26;;;;;;;;;;;;;;;19.19;44.94;95484.45;1687399;81;20212;-57
2021/05/14 10:54:52;;;;;;;;;;;;;;;19.11;44.64;95476.70;1682578;83;21069;-55
2021/05/14 10:57:37;;;;;;;;;;;;;;;19.14;45.55;95490.78;1687151;83;20221;-57
2021/05/14 11:00:27;;;;;;;;;;;;;;;19.18;45.11;95485.95;1692938;83;20250;-57
2021/05/14 11:03:14;;;;;;;;;;;;;;;19.19;43.56;95485.77;1696558;83;20258;-58
2021/05/14 11:05:48;;;;;;;;;;;;;;;19.04;44.12;95498.18;1689623;83;20525;-58
2021/05/14 11:08:35;;;;;;;;;;;;;;;18.98;44.20;95486.61;1678517;83;21069;-57
2021/05/14 11:11:09;;;;;;;;;;;;;;;18.90;44.81;95488.05;1702840;83;20232;-57
2021/05/14 11:13:40;;;;;;;;;;;;;;;18.89;45.47;95503.49;1676916;83;20249;-58
2021/05/14 11:16:27;;;;;;;;;;;;;;;18.92;45.46;95499.98;1692639;83;20256;-58
2021/05/14 11:18:56;;;;;;;;;;;;;;;18.94;45.85;95501.11;1679661;83;20226;-57
2021/05/14 11:21:24;;;;;;;;;;;;;;;19.02;45.80;95502.30;1682185;83;21085;-56
2021/05/14 11:24:05;;;;;;;;;;;;;;;19.09;45.82;95496.59;1667397;83;20308;-58
2021/05/14 11:26:32;;;;;;;;;;;;;;;19.16;42.36;95499.32;1685506;83;20136;-57
2021/05/14 11:28:58;;;;;;;;;;;;;;;19.13;43.50;95506.27;1741433;81;20222;-59
2021/05/14 11:31:25;;;;;;;;;;;;;;;19.16;42.78;95512.95;1739001;81;20224;-56
2021/05/14 11:33:53;;;;;;;;;;;;;;;19.14;43.64;95507.88;1729278;81;21019;-56
2021/05/14 11:36:23;;;;;;;;;;;;;;;19.21;43.03;95508.77;1727874;81;20209;-58
2021/05/14 11:38:56;;;;;;;;;;;;;;;19.25;42.50;95511.31;1734038;81;20230;-57
2021/05/14 11:41:32;;;;;;;;;;;;;;;19.16;42.77;95509.84;1737523;81;20180;-55
2021/05/14 11:44:03;;;;;;;;;;;;;;;19.20;43.05;95507.64;1730621;81;20134;-57
2021/05/14 11:46:32;;;;;;;;;;;;;;;19.26;43.17;95495.86;1736633;81;21040;-58
2021/05/14 11:49:07;;;;;;;;;;;;;;;19.36;43.19;95507.38;1727209;81;20243;-57
2021/05/14 11:51:34;;;;;;;;;;;;;;;19.15;42.28;95508.70;1738654;81;20166;-57
2021/05/14 11:54:11;;;;;;;;;;;;;;;18.87;43.77;95508.12;1735795;81;20265;-57
2021/05/14 11:56:37;;;;;;;;;;;;;;;18.90;45.27;95516.95;1729503;81;20315;-57
2021/05/14 11:59:04;;;;;;;;;;;;;;;19.06;43.19;95512.78;1733919;81;21024;-57
2021/05/14 12:01:39;;;;;;;;;;;;;;;19.04;43.47;95503.44;1733925;81;20740;-55
2021/05/14 12:04:06;;;;;;;;;;;;;;;18.84;43.23;95509.30;1738110;81;20560;-55
2021/05/14 12:06:32;;;;;;;;;;;;;;;18.71;41.53;95498.63;1738307;81;20226;-56
2021/05/14 12:09:03;;;;;;;;;;;;;;;18.57;42.18;95523.44;1721233;81;20563;-55
2021/05/14 12:11:30;;;;;;;;;;;;;;;18.44;41.22;95517.19;1734877;81;20770;-55
2021/05/14 12:13:58;;;;;;;;;;;;;;;18.25;42.08;95504.95;1722074;81;20555;-55
2021/05/14 12:16:25;;;;;;;;;;;;;;;18.27;43.61;95513.96;1723226;81;20244;-56
2021/05/14 12:18:56;;;;;;;;;;;;;;;18.40;43.34;95514.13;1715626;81;20242;-56
2021/05/14 12:21:24;;;;;;;;;;;;;;;18.56;41.94;95517.86;1736367;81;20207;-56
2021/05/14 12:23:51;;;;;;;;;;;;;;;18.59;42.68;95507.49;1720390;81;21085;-56
2021/05/14 12:26:18;;;;;;;;;;;;;;;18.68;42.76;95516.88;1724988;81;20228;-55
2021/05/14 12:28:46;;;;;;;;;;;;;;;18.79;41.70;95530.55;1716493;81;20222;-55
2021/05/14 12:31:18;;;;;;;;;;;;;;;18.74;41.84;95521.39;1709641;82;20231;-56
2021/05/14 12:33:53;;;;;;;;;;;;;;;18.76;41.75;95525.16;1718524;81;20231;-56
2021/05/14 12:36:35;;;;;;;;;;;;;;;18.80;42.21;95530.37;1706944;81;21102;-56
2021/05/14 12:39:14;;;;;;;;;;;;;;;18.86;42.32;95536.20;1680505;85;21534;-54
2021/05/14 12:41:52;;;;;;;;;;;;;;;18.88;42.91;95525.51;1713898;81;20291;-56
2021/05/14 12:44:33;;;;;;;;;;;;;;;19.04;40.88;95516.07;1677636;83;20504;-56
2021/05/14 12:47:15;;;;;;;;;;;;;;;18.88;41.76;95521.56;1675355;84;20208;-56
2021/05/14 12:49:49;;;;;;;;;;;;;;;18.76;40.83;95522.02;1713342;81;21713;-56
2021/05/14 12:52:25;;;;;;;;;;;;;;;18.61;41.76;95518.63;1721748;81;20216;-57
2021/05/14 12:54:54;;;;;;;;;;;;;;;18.56;40.97;95517.86;1726276;81;20256;-58
2021/05/14 12:57:34;;;;;;;;;;;;;;;18.54;41.70;95525.11;1726052;81;20254;-57
2021/05/14 13:00:08;;;;;;;;;;;;;;;18.52;41.72;95533.69;1731628;81;20162;-57